createdAt,value
2019-05-29T00:02:12.076Z,89.50
2019-05-29T00:04:41.045Z,89.64
2019-05-29T00:07:12.221Z,89.60
2019-05-29T00:09:41.526Z,89.64
2019-05-29T00:12:11.924Z,89.66
2019-05-29T00:14:41.304Z,89.93
2019-05-29T00:17:10.568Z,89.95
2019-05-29T00:19:39.437Z,90.00
2019-05-29T00:22:08.357Z,90.14
2019-05-29T00:24:37.937Z,90.37
2019-05-29T00:27:07.385Z,90.44
2019-05-29T00:29:36.320Z,90.67
2019-05-29T00:32:05.424Z,90.83
2019-05-29T00:34:34.371Z,90.87
2019-05-29T00:37:04.248Z,90.96
2019-05-29T00:39:33.142Z,90.98
2019-05-29T00:42:02.383Z,90.97
2019-05-29T00:44:34.435Z,90.87
2019-05-29T00:47:01.971Z,91.05
2019-05-29T00:49:31.236Z,91.27
2019-05-29T00:52:00.103Z,91.34
2019-05-29T00:54:29.074Z,91.36
2019-05-29T00:56:58.097Z,91.36
2019-05-29T00:59:26.960Z,91.44
2019-05-29T01:01:56.112Z,91.48
2019-05-29T01:04:24.991Z,91.57
2019-05-29T01:06:54.175Z,91.64
2019-05-29T01:09:23.512Z,91.54
2019-05-29T01:11:52.355Z,91.54
2019-05-29T01:14:21.524Z,91.56
2019-05-29T01:16:50.454Z,91.58
2019-05-29T01:19:25.523Z,91.66
2019-05-29T01:21:55.533Z,91.67
2019-05-29T01:24:24.643Z,91.67
2019-05-29T01:26:53.736Z,91.78
2019-05-29T01:29:23.420Z,91.93
2019-05-29T01:31:52.497Z,91.95
2019-05-29T01:34:22.055Z,91.89
2019-05-29T01:36:51.257Z,91.81
2019-05-29T01:39:21.325Z,91.82
2019-05-29T01:41:50.683Z,91.78
2019-05-29T01:44:19.555Z,91.80
2019-05-29T01:46:48.970Z,91.79
2019-05-29T01:49:17.943Z,91.80
2019-05-29T01:51:47.114Z,91.77
2019-05-29T01:54:16.025Z,91.75
2019-05-29T01:56:45.182Z,91.82
2019-05-29T01:59:14.046Z,91.89
2019-05-29T02:01:42.908Z,91.86
2019-05-29T02:04:11.769Z,91.86
2019-05-29T02:06:40.746Z,91.82
2019-05-29T02:09:09.711Z,91.79
2019-05-29T02:11:38.570Z,91.79
2019-05-29T02:14:07.509Z,91.79
2019-05-29T02:16:36.770Z,91.80
2019-05-29T02:19:05.862Z,91.82
2019-05-29T02:21:34.778Z,91.82
2019-05-29T02:24:03.897Z,91.81
2019-05-29T02:26:33.358Z,91.82
2019-05-29T02:29:02.231Z,91.86
2019-05-29T02:31:31.187Z,91.89
2019-05-29T02:34:00.330Z,91.89
2019-05-29T02:36:29.867Z,91.79
2019-05-29T02:38:58.704Z,91.86
2019-05-29T02:41:28.476Z,91.90
2019-05-29T02:43:58.748Z,91.94
2019-05-29T02:46:28.566Z,91.83
2019-05-29T02:48:58.286Z,91.72
2019-05-29T02:51:28.417Z,91.63
2019-05-29T02:53:57.789Z,91.58
2019-05-29T02:56:27.055Z,91.54
2019-05-29T02:58:56.250Z,91.50
2019-05-29T03:01:25.540Z,91.62
2019-05-29T03:03:54.667Z,91.66
2019-05-29T03:06:24.107Z,91.69
2019-05-29T03:08:53.031Z,91.59
2019-05-29T03:11:23.084Z,91.63
2019-05-29T03:13:52.621Z,91.68
2019-05-29T03:16:21.394Z,91.74
2019-05-29T03:18:50.591Z,91.67
2019-05-29T03:21:20.008Z,91.66
2019-05-29T03:23:48.771Z,91.55
2019-05-29T03:26:18.197Z,91.48
2019-05-29T03:28:47.449Z,91.52
2019-05-29T03:31:16.532Z,91.55
2019-05-29T03:33:49.829Z,91.52
2019-05-29T03:36:16.519Z,91.52
2019-05-29T03:38:45.368Z,91.54
2019-05-29T03:41:14.549Z,91.50
2019-05-29T03:43:43.427Z,91.41
2019-05-29T03:46:29.079Z,91.61
2019-05-29T03:48:43.230Z,92.10
2019-05-29T03:51:12.160Z,91.44
2019-05-29T03:53:41.308Z,89.82
2019-05-29T03:56:10.433Z,88.69
2019-05-29T03:58:39.648Z,88.35
2019-05-29T04:01:08.597Z,88.82
2019-05-29T04:03:38.153Z,90.12
2019-05-29T04:06:07.722Z,90.67
2019-05-29T04:08:38.390Z,88.43
2019-05-29T04:11:07.691Z,84.42
2019-05-29T04:13:38.787Z,80.10
2019-05-29T04:16:08.483Z,75.76
2019-05-29T04:18:38.224Z,71.34
2019-05-29T04:21:07.728Z,66.99
2019-05-29T04:23:38.098Z,63.50
2019-05-29T04:26:07.310Z,60.40
2019-05-29T04:28:37.360Z,57.70
2019-05-29T04:31:07.538Z,54.96
2019-05-29T04:33:37.358Z,52.58
2019-05-29T04:36:07.344Z,51.54
2019-05-29T04:38:38.480Z,49.79
2019-05-29T04:41:06.768Z,48.32
2019-05-29T04:43:37.396Z,47.21
2019-05-29T04:46:06.816Z,45.76
2019-05-29T04:48:37.716Z,44.83
2019-05-29T04:51:06.731Z,43.87
2019-05-29T04:53:37.724Z,43.21
2019-05-29T04:56:06.871Z,42.79
2019-05-29T04:58:37.014Z,41.87
2019-05-29T05:01:06.062Z,41.42
2019-05-29T05:03:35.171Z,41.09
2019-05-29T05:06:04.435Z,39.69
2019-05-29T05:08:33.430Z,39.65
2019-05-29T05:11:02.330Z,39.34
2019-05-29T05:13:31.572Z,38.68
2019-05-29T05:16:01.833Z,38.06
2019-05-29T05:18:31.827Z,37.41
2019-05-29T05:21:00.636Z,37.06
2019-05-29T05:23:30.102Z,36.89
2019-05-29T05:25:59.472Z,36.66
2019-05-29T05:28:28.477Z,36.30
2019-05-29T05:30:57.643Z,36.54
2019-05-29T05:33:26.481Z,36.02
2019-05-29T05:35:55.306Z,36.28
2019-05-29T05:38:24.084Z,36.24
2019-05-29T05:40:53.220Z,36.07
2019-05-29T05:43:24.475Z,36.62
2019-05-29T05:45:53.446Z,37.77
2019-05-29T05:48:22.312Z,38.23
2019-05-29T05:50:51.165Z,37.74
2019-05-29T05:53:20.272Z,38.32
2019-05-29T05:55:49.110Z,39.36
2019-05-29T05:58:18.066Z,40.42
2019-05-29T06:00:46.971Z,41.54
2019-05-29T06:03:16.068Z,43.73
2019-05-29T06:05:45.413Z,44.15
2019-05-29T06:08:14.361Z,45.52
2019-05-29T06:10:43.238Z,46.64
2019-05-29T06:13:12.408Z,47.72
2019-05-29T06:15:42.816Z,49.01
2019-05-29T06:18:21.279Z,49.93
2019-05-29T06:20:43.200Z,50.15
2019-05-29T06:23:12.171Z,52.12
2019-05-29T06:25:42.434Z,52.56
2019-05-29T06:28:11.702Z,53.51
2019-05-29T06:30:42.583Z,52.60
2019-05-29T06:33:11.383Z,53.90
2019-05-29T06:35:41.607Z,55.47
2019-05-29T06:38:10.859Z,56.29
2019-05-29T06:40:42.109Z,55.93
2019-05-29T06:43:21.691Z,56.10
2019-05-29T06:45:51.187Z,56.29
2019-05-29T06:48:41.817Z,57.25
2019-05-29T06:50:58.541Z,59.12
2019-05-29T06:53:27.686Z,59.06
2019-05-29T06:55:58.053Z,59.67
2019-05-29T06:58:27.191Z,59.12
2019-05-29T07:00:56.088Z,59.93
2019-05-29T07:03:24.903Z,57.58
2019-05-29T07:05:53.835Z,59.15
2019-05-29T07:08:37.460Z,60.45
2019-05-29T07:10:54.257Z,59.64
2019-05-29T07:13:23.158Z,59.65
2019-05-29T07:15:52.738Z,58.41
2019-05-29T07:18:21.958Z,57.47
2019-05-29T07:20:50.899Z,57.13
2019-05-29T07:23:19.763Z,58.10
2019-05-29T07:25:48.897Z,58.88
2019-05-29T07:28:17.848Z,59.68
2019-05-29T07:30:53.877Z,58.64
2019-05-29T07:33:17.698Z,59.17
2019-05-29T07:35:47.697Z,59.52
2019-05-29T07:38:16.815Z,59.06
2019-05-29T07:40:48.202Z,59.39
2019-05-29T07:43:16.883Z,58.43
2019-05-29T07:45:46.208Z,57.80
2019-05-29T07:48:15.102Z,59.03
2019-05-29T07:50:44.312Z,58.85
2019-05-29T07:53:13.761Z,59.08
2019-05-29T07:55:44.694Z,59.08
2019-05-29T07:58:13.733Z,60.16
2019-05-29T08:01:06.741Z,61.09
2019-05-29T08:03:14.253Z,60.34
2019-05-29T08:05:47.753Z,59.55
2019-05-29T08:08:14.150Z,59.43
2019-05-29T08:10:43.507Z,57.80
2019-05-29T08:13:12.679Z,58.77
2019-05-29T08:15:54.135Z,58.60
2019-05-29T08:18:12.532Z,58.81
2019-05-29T08:20:41.925Z,59.69
2019-05-29T08:23:10.767Z,58.97
2019-05-29T08:25:41.313Z,58.69
2019-05-29T08:28:10.329Z,58.07
2019-05-29T08:30:41.037Z,58.44
2019-05-29T08:33:10.450Z,58.27
2019-05-29T08:35:39.329Z,58.88
2019-05-29T08:38:08.185Z,57.87
2019-05-29T08:40:37.164Z,57.37
2019-05-29T08:43:06.148Z,56.84
2019-05-29T08:45:35.055Z,56.99
2019-05-29T08:48:03.994Z,56.72
2019-05-29T08:50:32.904Z,56.59
2019-05-29T08:53:02.646Z,56.00
2019-05-29T08:55:31.748Z,55.59
2019-05-29T08:58:00.905Z,56.30
2019-05-29T09:00:29.835Z,55.55
2019-05-29T09:02:58.805Z,55.17
2019-05-29T09:05:28.020Z,54.31
2019-05-29T09:07:57.028Z,53.64
2019-05-29T09:10:25.960Z,54.21
2019-05-29T09:13:04.418Z,53.15
2019-05-29T09:15:25.489Z,53.70
2019-05-29T09:17:54.375Z,54.12
2019-05-29T09:20:43.245Z,54.27
2019-05-29T09:22:54.270Z,55.17
2019-05-29T09:25:23.301Z,54.71
2019-05-29T09:27:52.160Z,54.35
2019-05-29T09:30:21.820Z,53.78
2019-05-29T09:32:53.014Z,54.02
2019-05-29T09:35:23.291Z,54.07
2019-05-29T09:37:52.407Z,53.64
2019-05-29T09:40:21.874Z,54.20
2019-05-29T09:42:51.972Z,54.42
2019-05-29T09:45:21.545Z,53.54
2019-05-29T09:47:50.586Z,52.76
2019-05-29T09:50:22.763Z,52.76
2019-05-29T09:52:51.047Z,53.43
2019-05-29T09:55:20.593Z,52.59
2019-05-29T09:57:49.734Z,52.27
2019-05-29T10:00:19.135Z,52.65
2019-05-29T10:02:47.986Z,52.10
2019-05-29T10:05:17.331Z,52.70
2019-05-29T10:07:46.848Z,52.93
2019-05-29T10:10:16.457Z,54.56
2019-05-29T10:12:45.395Z,53.69
2019-05-29T10:15:14.754Z,52.75
2019-05-29T10:17:43.855Z,52.18
2019-05-29T10:20:13.327Z,52.38
2019-05-29T10:22:42.578Z,51.09
2019-05-29T10:25:11.821Z,50.46
2019-05-29T10:27:41.686Z,48.87
2019-05-29T10:30:12.500Z,49.61
2019-05-29T10:32:42.708Z,49.79
2019-05-29T10:35:12.733Z,49.60
2019-05-29T10:37:42.780Z,49.81
2019-05-29T10:40:11.902Z,50.22
2019-05-29T10:42:41.160Z,50.34
2019-05-29T10:45:10.418Z,49.32
2019-05-29T10:47:39.765Z,49.20
2019-05-29T10:50:09.429Z,50.01
2019-05-29T10:52:38.474Z,51.18
2019-05-29T10:55:09.660Z,51.02
2019-05-29T10:57:38.782Z,51.26
2019-05-29T11:00:08.940Z,51.28
2019-05-29T11:02:38.128Z,51.25
2019-05-29T11:05:07.663Z,51.65
2019-05-29T11:07:36.613Z,51.47
2019-05-29T11:10:06.713Z,51.01
2019-05-29T11:12:39.057Z,50.50
2019-05-29T11:15:20.630Z,49.87
2019-05-29T11:17:37.506Z,48.72
2019-05-29T11:20:06.978Z,46.89
2019-05-29T11:22:35.834Z,47.68
2019-05-29T11:25:21.676Z,46.67
2019-05-29T11:27:36.433Z,47.03
2019-05-29T11:30:06.210Z,47.79
2019-05-29T11:32:35.628Z,46.67
2019-05-29T11:35:05.071Z,45.06
2019-05-29T11:37:34.299Z,45.60
2019-05-29T11:40:03.710Z,43.62
2019-05-29T11:42:32.604Z,43.00
2019-05-29T11:45:01.450Z,41.37
2019-05-29T11:47:30.274Z,41.26
2019-05-29T11:50:07.401Z,42.12
2019-05-29T11:52:42.347Z,42.54
2019-05-29T11:55:07.069Z,44.66
2019-05-29T11:57:31.965Z,44.90
2019-05-29T12:00:09.733Z,46.07
2019-05-29T12:02:31.550Z,46.57
2019-05-29T12:05:03.714Z,46.55
2019-05-29T12:07:31.480Z,46.34
2019-05-29T12:10:04.341Z,45.50
2019-05-29T12:12:31.582Z,45.03
2019-05-29T12:15:10.979Z,44.72
2019-05-29T12:17:32.136Z,44.91
2019-05-29T12:20:02.603Z,42.60
2019-05-29T12:22:32.336Z,44.15
2019-05-29T12:25:02.877Z,42.14
2019-05-29T12:27:31.783Z,42.30
2019-05-29T12:30:01.017Z,43.37
2019-05-29T12:32:30.031Z,43.33
2019-05-29T12:34:59.679Z,44.42
2019-05-29T12:37:28.649Z,42.31
2019-05-29T12:39:57.582Z,42.69
2019-05-29T12:42:26.421Z,41.91
2019-05-29T12:44:55.713Z,42.87
2019-05-29T12:47:25.189Z,41.79
2019-05-29T12:49:55.419Z,41.90
2019-05-29T12:52:24.402Z,41.16
2019-05-29T12:54:53.850Z,40.59
2019-05-29T12:57:23.646Z,40.50
2019-05-29T12:59:53.914Z,40.95
2019-05-29T13:02:22.993Z,39.41
2019-05-29T13:05:16.018Z,38.68
2019-05-29T13:07:22.567Z,38.34
2019-05-29T13:09:51.535Z,39.18
2019-05-29T13:12:20.425Z,39.30
2019-05-29T13:14:49.355Z,39.30
2019-05-29T13:17:18.281Z,39.60
2019-05-29T13:19:47.861Z,39.54
2019-05-29T13:22:16.947Z,40.28
2019-05-29T13:24:45.809Z,40.74
2019-05-29T13:27:14.745Z,40.74
2019-05-29T13:29:44.062Z,40.57
2019-05-29T13:32:12.967Z,40.49
2019-05-29T13:34:42.103Z,40.01
2019-05-29T13:37:10.947Z,40.75
2019-05-29T13:39:39.804Z,41.15
2019-05-29T13:42:11.921Z,42.82
2019-05-29T13:44:39.692Z,43.17
2019-05-29T13:47:08.683Z,41.77
2019-05-29T13:49:37.615Z,41.57
2019-05-29T13:52:09.970Z,41.30
2019-05-29T13:54:37.175Z,41.10
2019-05-29T13:57:06.735Z,41.03
2019-05-29T13:59:37.347Z,41.86
2019-05-29T14:02:08.214Z,42.79
2019-05-29T14:04:36.961Z,44.36
2019-05-29T14:07:06.770Z,43.54
2019-05-29T14:09:35.705Z,43.04
2019-05-29T14:12:05.270Z,42.21
2019-05-29T14:14:34.556Z,42.92
2019-05-29T14:17:04.565Z,43.34
2019-05-29T14:19:33.486Z,43.20
2019-05-29T14:22:03.025Z,43.81
2019-05-29T14:24:32.014Z,42.57
2019-05-29T14:27:01.573Z,41.67
2019-05-29T14:29:30.519Z,42.42
2019-05-29T14:32:00.841Z,43.47
2019-05-29T14:34:29.847Z,44.26
2019-05-29T14:36:58.805Z,43.45
2019-05-29T14:39:27.631Z,42.96
2019-05-29T14:41:57.279Z,43.09
2019-05-29T14:44:26.134Z,43.56
2019-05-29T14:46:55.001Z,44.18
2019-05-29T14:49:26.789Z,43.28
2019-05-29T14:51:55.141Z,42.93
2019-05-29T14:54:40.774Z,42.12
2019-05-29T14:56:55.103Z,42.31
2019-05-29T14:59:24.011Z,42.62
2019-05-29T15:01:52.842Z,42.48
2019-05-29T15:04:21.829Z,42.47
2019-05-29T15:06:50.618Z,42.61
2019-05-29T15:09:20.243Z,42.01
2019-05-29T15:11:49.116Z,42.27
2019-05-29T15:14:17.965Z,42.06
2019-05-29T15:16:46.828Z,42.14
2019-05-29T15:19:15.665Z,42.62
2019-05-29T15:21:44.903Z,43.35
2019-05-29T15:24:14.079Z,43.86
2019-05-29T15:26:42.947Z,43.04
2019-05-29T15:29:13.271Z,42.76
2019-05-29T15:31:43.049Z,43.10
2019-05-29T15:34:12.439Z,42.98
2019-05-29T15:36:41.281Z,42.40
2019-05-29T15:39:10.646Z,42.20
2019-05-29T15:41:39.625Z,42.37
2019-05-29T15:44:08.845Z,43.28
2019-05-29T15:46:37.990Z,42.80
2019-05-29T15:49:08.575Z,42.68
2019-05-29T15:51:37.685Z,42.82
2019-05-29T15:54:07.154Z,42.89
2019-05-29T15:56:36.045Z,43.75
2019-05-29T15:59:05.375Z,44.06
2019-05-29T16:01:34.492Z,43.17
2019-05-29T16:04:03.438Z,43.55
2019-05-29T16:06:32.420Z,43.44
2019-05-29T16:09:01.692Z,43.58
2019-05-29T16:11:30.577Z,43.78
2019-05-29T16:13:59.782Z,43.95
2019-05-29T16:16:28.749Z,44.16
2019-05-29T16:19:00.455Z,43.89
2019-05-29T16:21:28.688Z,44.23
2019-05-29T16:23:57.530Z,43.95
2019-05-29T16:26:26.429Z,44.26
2019-05-29T16:28:55.300Z,44.51
2019-05-29T16:31:24.185Z,44.40
2019-05-29T16:33:53.373Z,44.37
2019-05-29T16:36:22.590Z,44.58
2019-05-29T16:38:51.559Z,44.55
2019-05-29T16:41:21.988Z,44.53
2019-05-29T16:43:50.948Z,44.04
2019-05-29T16:46:22.385Z,44.06
2019-05-29T16:48:50.454Z,44.49
2019-05-29T16:51:19.354Z,44.43
2019-05-29T16:53:48.219Z,44.52
2019-05-29T16:56:17.167Z,44.68
2019-05-29T16:58:46.060Z,44.59
2019-05-29T17:01:15.262Z,44.83
2019-05-29T17:03:44.346Z,45.04
2019-05-29T17:06:13.641Z,45.04
2019-05-29T17:08:42.781Z,45.46
2019-05-29T17:11:11.750Z,45.81
2019-05-29T17:13:40.692Z,45.92
2019-05-29T17:16:09.579Z,45.91
2019-05-29T17:18:38.439Z,45.91
2019-05-29T17:21:07.610Z,46.28
2019-05-29T17:23:36.652Z,46.27
2019-05-29T17:26:10.638Z,46.10
2019-05-29T17:28:36.136Z,46.73
2019-05-29T17:31:05.025Z,46.83
2019-05-29T17:33:33.891Z,47.18
2019-05-29T17:36:02.741Z,47.48
2019-05-29T17:38:31.515Z,47.22
2019-05-29T17:41:00.717Z,47.31
2019-05-29T17:43:29.755Z,46.99
2019-05-29T17:45:58.771Z,47.61
2019-05-29T17:48:27.692Z,46.97
2019-05-29T17:50:57.377Z,47.08
2019-05-29T17:53:26.575Z,47.07
2019-05-29T17:55:55.762Z,46.92
2019-05-29T17:58:25.060Z,46.96
2019-05-29T18:00:55.398Z,47.12
2019-05-29T18:03:26.327Z,47.39
2019-05-29T18:05:55.502Z,47.52
2019-05-29T18:08:25.002Z,47.38
2019-05-29T18:10:53.994Z,47.22
2019-05-29T18:13:23.376Z,47.44
2019-05-29T18:15:52.228Z,48.15
2019-05-29T18:18:21.567Z,48.53
2019-05-29T18:20:50.909Z,48.92
2019-05-29T18:23:20.070Z,48.85
2019-05-29T18:25:48.987Z,49.45
2019-05-29T18:28:18.229Z,49.28
2019-05-29T18:30:47.433Z,49.64
2019-05-29T18:33:16.346Z,49.41
2019-05-29T18:35:45.200Z,49.89
2019-05-29T18:38:14.020Z,50.21
2019-05-29T18:40:42.924Z,50.34
2019-05-29T18:43:12.167Z,49.99
2019-05-29T18:45:41.066Z,50.06
2019-05-29T18:48:09.961Z,50.01
2019-05-29T18:50:39.027Z,49.83
2019-05-29T18:53:09.512Z,49.65
2019-05-29T18:55:38.354Z,49.92
2019-05-29T18:58:07.229Z,49.99
2019-05-29T19:00:36.119Z,50.15
2019-05-29T19:03:05.195Z,50.52
2019-05-29T19:05:34.466Z,50.84
2019-05-29T19:08:03.642Z,51.26
2019-05-29T19:10:32.835Z,51.61
2019-05-29T19:13:02.084Z,51.87
2019-05-29T19:15:32.092Z,52.22
2019-05-29T19:18:01.054Z,52.41
2019-05-29T19:20:30.540Z,52.49
2019-05-29T19:22:59.847Z,52.76
2019-05-29T19:25:29.072Z,53.36
2019-05-29T19:27:58.380Z,53.58
2019-05-29T19:30:27.214Z,53.81
2019-05-29T19:32:56.441Z,54.12
2019-05-29T19:35:25.535Z,54.92
2019-05-29T19:37:54.504Z,55.88
2019-05-29T19:40:24.055Z,56.29
2019-05-29T19:42:54.762Z,56.68
2019-05-29T19:45:24.639Z,57.20
2019-05-29T19:47:53.701Z,58.32
2019-05-29T19:50:22.971Z,59.46
2019-05-29T19:52:51.847Z,60.39
2019-05-29T19:55:20.753Z,61.10
2019-05-29T19:57:55.788Z,61.83
2019-05-29T20:00:20.428Z,61.27
2019-05-29T20:02:49.309Z,61.46
2019-05-29T20:05:18.241Z,61.41
2019-05-29T20:07:47.249Z,61.56
2019-05-29T20:10:16.264Z,61.70
2019-05-29T20:12:45.098Z,61.96
2019-05-29T20:15:13.989Z,62.33
2019-05-29T20:17:43.033Z,62.64
2019-05-29T20:20:12.366Z,62.93
2019-05-29T20:22:41.303Z,63.09
2019-05-29T20:25:13.447Z,63.42
2019-05-29T20:27:40.840Z,64.35
2019-05-29T20:30:15.999Z,64.93
2019-05-29T20:32:44.874Z,65.17
2019-05-29T20:35:14.120Z,66.01
2019-05-29T20:37:43.676Z,66.36
2019-05-29T20:40:12.792Z,66.74
2019-05-29T20:42:42.518Z,67.18
2019-05-29T20:45:11.699Z,67.34
2019-05-29T20:47:41.949Z,67.89
2019-05-29T20:50:12.788Z,68.11
2019-05-29T20:52:41.655Z,67.94
2019-05-29T20:55:10.823Z,67.81
2019-05-29T20:57:40.090Z,67.97
2019-05-29T21:00:10.064Z,68.08
2019-05-29T21:02:40.305Z,68.42
2019-05-29T21:05:09.771Z,68.69
2019-05-29T21:07:38.854Z,68.85
2019-05-29T21:10:08.312Z,69.09
2019-05-29T21:12:37.926Z,69.28
2019-05-29T21:15:08.168Z,69.51
2019-05-29T21:17:37.879Z,70.20
2019-05-29T21:20:07.814Z,71.02
2019-05-29T21:22:36.746Z,71.39
2019-05-29T21:25:11.339Z,71.96
2019-05-29T21:27:40.825Z,72.27
2019-05-29T21:30:08.438Z,72.74
2019-05-29T21:32:37.827Z,73.36
2019-05-29T21:35:07.180Z,73.84
2019-05-29T21:37:36.240Z,74.25
2019-05-29T21:40:06.167Z,74.82
2019-05-29T21:42:36.457Z,75.03
2019-05-29T21:45:06.275Z,75.03
2019-05-29T21:47:35.238Z,74.63
2019-05-29T21:50:04.469Z,74.29
2019-05-29T21:52:33.448Z,74.23
2019-05-29T21:55:02.746Z,74.59
2019-05-29T21:57:31.633Z,74.85
2019-05-29T22:00:00.467Z,75.08
2019-05-29T22:02:29.318Z,75.03
2019-05-29T22:04:58.510Z,74.95
2019-05-29T22:07:27.417Z,74.64
2019-05-29T22:09:56.665Z,74.40
2019-05-29T22:12:26.109Z,74.16
2019-05-29T22:14:55.287Z,74.03
2019-05-29T22:17:24.901Z,73.74
2019-05-29T22:19:54.939Z,73.61
2019-05-29T22:22:24.220Z,73.62
2019-05-29T22:24:53.337Z,73.53
2019-05-29T22:27:22.269Z,73.38
2019-05-29T22:29:52.308Z,73.02
2019-05-29T22:32:22.634Z,72.86
2019-05-29T22:34:52.092Z,72.96
2019-05-29T22:37:22.915Z,73.14
2019-05-29T22:39:53.507Z,73.12
2019-05-29T22:42:22.578Z,73.07
2019-05-29T22:44:51.797Z,73.18
2019-05-29T22:47:20.646Z,73.22
2019-05-29T22:49:49.864Z,73.18
2019-05-29T22:52:18.732Z,73.21
2019-05-29T22:54:47.704Z,73.61
2019-05-29T22:57:16.566Z,74.00
2019-05-29T22:59:45.456Z,74.39
2019-05-29T23:02:14.382Z,74.45
2019-05-29T23:04:43.668Z,74.41
2019-05-29T23:07:12.606Z,74.30
2019-05-29T23:09:41.642Z,74.46
2019-05-29T23:12:10.593Z,74.75
2019-05-29T23:14:39.427Z,75.06
2019-05-29T23:17:08.398Z,75.24
2019-05-29T23:19:37.375Z,75.33
2019-05-29T23:22:06.610Z,75.59
2019-05-29T23:24:35.653Z,75.85
2019-05-29T23:27:04.549Z,75.92
2019-05-29T23:29:48.001Z,76.01
2019-05-29T23:32:04.706Z,76.23
2019-05-29T23:34:33.654Z,76.43
2019-05-29T23:37:03.376Z,76.67
2019-05-29T23:39:32.205Z,77.14
2019-05-29T23:42:01.722Z,77.36
2019-05-29T23:44:31.226Z,77.78
2019-05-29T23:47:00.133Z,78.05
2019-05-29T23:49:29.000Z,78.04
2019-05-29T23:51:57.956Z,78.22
2019-05-29T23:54:26.920Z,78.39
2019-05-29T23:56:55.875Z,78.60
2019-05-29T23:59:24.763Z,78.64
